Station: Thevenard Island  

  Atmospheric Gas Attenuation - ITU Rec 676-11   ----------------- dB/100km -----------------
Date Time Temp RH % AH g/m3 Dew Point Wind Direction Speed kph Gust kph Barometer mB Rainfall Since 9am 24GHz 47GHz 76GHz 122GHz 134GHz 241GHz
08/05 09:30 25.5 30 7.1 6.7 43 57 1019.1 0 15.9 20.9 29.7 77.4 68.8 235.9
08/05 09:20 25.3 41 54 1019 0
08/05 09:10 25.2 43 50 1018.9 0
08/05 09:00 25.7 32 7.66 7.8 41 54 1018.7 0 17.1 21.6 31.4 82.1 74.6 256.5
08/05 08:50 25.2 48 56 1018.5 0
08/05 08:40 25.3 43 52 1018.4 0
08/05 08:30 25.3 33 7.73 7.9 44 56 1018.4 0 17.2 21.8 31.8 83.1 75.7 260.4
08/05 08:20 25.3 43 52 1018.2 0
08/05 08:10 25.3 48 59 1018.2 0
08/05 08:00 25.2 35 8.15 8.7 43 56 1018.4 0 18.1 22.4 33.2 87.0 80.5 277.1
08/05 07:50 25.1 41 57 1018.4 0
08/05 07:40 25 43 54 1018.2 0
08/05 07:30 24.9 32 7.32 7.1 46 59 1018 0 16.4 21.3 30.5 79.8 71.6 245.8
08/05 07:20 24.9 46 57 1017.9 0
08/05 07:10 24.9 50 59 1017.6 0
08/05 07:00 24.8 36 8.19 8.7 46 61 1017.7 0 18.2 22.5 33.5 87.7 81.3 279.9
08/05 06:50 24.8 48 56 1017.4 0
08/05 06:40 24.9 50 59 1017.3 0
08/05 06:30 24.8 31 7.06 6.5 44 59 1017.4 0 15.9 21.0 29.7 77.6 68.8 236.0
08/05 06:20 24.8 31 7.06 6.5 43 63 1017.2 0 15.9 21.0 29.7 77.6 68.8 236.0
08/05 06:10 24.8 43 56 1017.1 0
08/05 06:00 24.9 31 7.1 6.6 44 59 1017 0 15.9 21.0 29.8 77.8 69.1 237.2
08/05 05:50 24.9 46 56 1016.8 0
08/05 05:40 24.9 44 52 1016.7 0
08/05 05:30 25 36 8.29 8.9 46 57 1016.8 0 18.4 22.6 33.7 88.3 82.2 282.9
08/05 05:20 25 43 54 1016.6 0
08/05 05:10 25 37 48 1016.6 0
08/05 05:00 25.2 33 7.68 7.8 43 63 1016.7 0 17.1 21.7 31.6 82.6 75.2 258.4
08/05 04:50 25.3 46 54 1016.6 0
08/05 04:40 25.4 43 52 1016.6 0
08/05 04:30 25.4 32 7.53 7.5 41 54 1016.8 0 16.8 21.4 31.0 81.1 73.4 252.1
08/05 04:20 25.5 41 50 1016.6 0
08/05 04:10 25.5 35 41 1016.5 0
08/05 04:00 25.7 33 7.9 8.2 41 54 1016.7 0 17.6 21.9 32.1 84.1 77.1 265.3
08/05 03:50 25.5 41 50 1016.6 0
08/05 03:40 25.5 33 43 1016.4 0
08/05 03:30 25.5 37 8.76 9.7 35 43 1016.4 0 19.4 23.1 35.1 92.1 86.9 299.7
08/05 03:20 25.6 32 39 1016.5 0
08/05 03:10 25.7 37 46 1016.4 0
08/05 03:00 25.7 38 9.1 10.3 35 46 1016.5 0 20.1 23.5 36.2 95.0 90.6 312.6
08/05 02:50 25.7 35 46 1016.4 0
08/05 02:40 25.8 41 50 1016.3 0
08/05 02:30 25.8 40 9.63 11.2 33 48 1016.4 0 21.2 24.3 38.0 99.8 96.6 333.6
08/05 02:20 25.9 39 50 1016.3 0
08/05 02:10 26.1 32 39 1016.5 0
08/05 02:00 25.9 44 10.65 12.7 32 44 1016.7 0 23.3 25.7 41.7 109.6 108.6 375.6
08/05 01:50 25.7 33 39 1016.7 0
08/05 01:40 25.7 28 37 1016.7 0
08/05 01:30 25.4 61 14.36 17.3 24 32 1017 0 31.1 31.7 56.5 149.0 157.0 544.6
08/05 01:20 25.1 22 26 1016.7 0
08/05 01:10 25.1 22 26 1016.8 0
08/05 01:00 25.3 69 16.15 19.2 19 24 1016.9 0 34.9 34.8 64.2 169.5 182.1 632.2
08/05 00:50 25.5 17 20 1016.7 0
08/05 00:40 25.7 17 19 1016.7 0
08/05 00:30 25.7 70 16.76 19.8 20 26 1016.6 0 36.1 35.8 66.5 175.7 189.9 659.3
08/05 00:20 25.7 20 24 1016.4 0
08/05 00:10 25.9 20 24 1016.4 0
08/05 00:00 25.9 69 16.7 19.8 19 26 1016.6 0 36.0 35.6 66.0 174.5 188.5 654.5
07/05 23:50 25.9 17 20 1016.6 0
07/05 23:40 25.9 19 22 1016.5 0
07/05 23:30 25.9 68 16.46 19.5 17 22 1016.7 0 35.5 35.1 65.0 171.7 185.1 642.6
07/05 23:20 26 17 19 1016.7 0
07/05 23:10 26.1 17 20 1016.8 0
07/05 23:00 26.2 64 15.76 18.9 20 26 1016.9 0 34.0 33.8 61.7 163.1 174.5 605.8
07/05 22:50 26.3 20 24 1016.9 0
07/05 22:40 26.2 22 24 1016.8 0
07/05 22:30 26.2 65 16 19.1 20 24 1017 0 34.5 34.2 62.8 165.8 177.9 617.6
07/05 22:20 26.3 22 26 1016.9 0
07/05 22:10 26.1 20 22 1016.9 0
07/05 22:00 26.2 65 16 19.3 20 28 1017 0 34.5 34.2 62.8 165.8 177.9 617.6
07/05 21:50 26.2 22 26 1016.9 0
07/05 21:40 26.3 20 26 1016.9 0
07/05 21:30 26.3 65 16.09 19.2 20 26 1017 0 34.7 34.3 63.1 166.6 178.9 621.2
07/05 21:20 26.3 20 24 1016.7 0
07/05 21:10 26.2 19 22 1016.6 0
07/05 21:00 26.3 66 16.34 19.4 20 26 1016.6 0 35.2 34.8 64.1 169.5 182.4 633.3
07/05 20:50 26.4 22 26 1016.4 0
07/05 20:40 26.5 22 26 1016.4 0
07/05 20:30 26.5 62 15.52 18.6 20 24 1016.4 0 33.4 33.3 60.5 159.7 170.4 591.7
07/05 20:20 26.5 19 20 1016.2 0
07/05 20:10 26.4 20 22 1016 0
07/05 20:00 26.4 61 15.19 18.3 20 26 1016.1 0 32.8 32.7 59.1 156.1 166.1 576.5
07/05 19:50 26.5 24 28 1016 0
07/05 19:40 26.6 24 28 1015.7 0
07/05 19:30 26.6 59 14.85 17.9 22 28 1015.7 0 32.0 32.1 57.5 151.9 161.0 558.7
07/05 19:20 26.6 22 28 1015.5 0
07/05 19:10 26.5 24 26 1015.2 0
07/05 19:00 26.5 61 15.27 18.4 24 30 1015.3 0 32.9 32.8 59.4 156.7 166.8 579.2
07/05 18:50 26.5 24 26 1015.1 0
07/05 18:40 26.7 24 28 1015.1 0
07/05 18:30 26.6 61 15.36 18.5 24 32 1015.1 0 33.1 32.9 59.6 157.5 167.8 582.7
07/05 18:20 26.7 26 30 1014.8 0
07/05 18:10 26.9 26 30 1014.7 0
07/05 18:00 26.9 57 14.59 17.7 26 33 1014.7 0 31.5 31.5 56.2 148.4 156.7 544.0
07/05 17:50 27 28 30 1014.5 0
07/05 17:40 27.1 28 32 1014.5 0
07/05 17:30 27.2 56 14.57 17.7 28 35 1014.6 0 31.4 31.4 55.9 147.6 155.9 540.9
07/05 17:20 27.4 28 30 1014.4 0
07/05 17:10 27.5 26 28 1014.5 0
07/05 17:00 27.6 54 14.37 17.5 26 33 1014.6 0 31.0 30.9 54.8 144.7 152.4 529.0

Last Refresh: 08-May-2026 11:05:15

Bureau of Meteorology